Time;durP1;ratioP1;P1;durP2;ratioP2;P2;SDS_P1;SDS_P2;PMS_P1;PMS_P2;Temp;Humidity;BMP_temperature;BMP_pressure;BME280_temperature;BME280_humidity;BME280_pressure;Samples;Min_cycle;Max_cycle;Signal;HPM_P1;HPM_P2
2022/01/26 00:00:54;;;;;;;;;;;3.40;99.90;;;;;;4971779;28;20379;-58
2022/01/26 00:06:09;;;;;;;;;;;3.30;99.90;;;;;;4980969;28;19936;-61
2022/01/26 00:08:35;;;;;;;;;;;3.30;99.90;;;;;;5006784;28;19933;-61
2022/01/26 00:11:01;;;;;;;;;;;3.30;99.90;;;;;;5006317;28;19929;-61
2022/01/26 00:13:26;;;;;;;;;;;3.30;99.90;;;;;;5006410;28;19937;-61
2022/01/26 00:15:53;;;;;;;;;;;3.30;99.90;;;;;;5006498;28;19932;-61
2022/01/26 00:18:21;;;;;;;;;;;3.30;99.90;;;;;;5001654;28;20280;-61
2022/01/26 00:20:54;;;;;;;;;;;3.30;99.90;;;;;;4986599;28;20299;-59
2022/01/26 00:28:58;;;;;;;;;;;3.30;99.90;;;;;;4986890;28;20020;-57
2022/01/26 00:39:33;;;;;;;;;;;3.20;99.90;;;;;;4986411;28;19936;-57
2022/01/26 00:42:00;;;;;;;;;;;3.20;99.90;;;;;;4986483;28;20033;-57
2022/01/26 00:44:33;;;;;;;;;;;3.30;99.90;;;;;;4985880;28;19933;-57
2022/01/26 00:46:59;;;;;;;;;;;3.20;99.90;;;;;;4986725;28;19937;-58
2022/01/26 00:49:25;;;;;;;;;;;3.20;99.90;;;;;;4985767;28;20042;-58
2022/01/26 00:51:52;;;;;;;;;;;3.20;99.90;;;;;;4986215;28;20744;-58
2022/01/26 00:54:17;;;;;;;;;;;3.20;99.90;;;;;;4986296;28;19973;-58
2022/01/26 00:56:43;;;;;;;;;;;4.00;99.90;;;;;;4986493;28;19972;-59
2022/01/26 00:59:10;;;;;;;;;;;3.20;99.90;;;;;;4986408;28;19930;-59
2022/01/26 01:01:36;;;;;;;;;;;3.50;99.90;;;;;;4971220;28;20383;-59
2022/01/26 01:04:02;;;;;;;;;;;3.20;99.90;;;;;;4980025;28;19983;-60
2022/01/26 01:06:34;;;;;;;;;;;3.20;99.90;;;;;;4996338;28;19925;-58
2022/01/26 01:09:00;;;;;;;;;;;3.20;99.90;;;;;;4985987;28;19930;-60
2022/01/26 01:11:26;;;;;;;;;;;3.20;99.90;;;;;;4985814;28;20493;-58
2022/01/26 01:13:52;;;;;;;;;;;3.20;99.90;;;;;;4985351;28;19925;-61
2022/01/26 01:16:20;;;;;;;;;;;3.30;99.90;;;;;;4985479;28;20378;-60
2022/01/26 01:29:47;;;;;;;;;;;3.20;99.90;;;;;;5025238;28;19935;-57
2022/01/26 01:32:16;;;;;;;;;;;3.70;99.90;;;;;;5038426;28;19940;-58
2022/01/26 01:34:42;;;;;;;;;;;3.20;99.90;;;;;;5004999;28;19929;-58
2022/01/26 01:37:09;;;;;;;;;;;3.20;99.90;;;;;;5005389;28;19929;-59
2022/01/26 01:39:36;;;;;;;;;;;3.10;99.90;;;;;;4994292;28;19969;-57
2022/01/26 01:42:02;;;;;;;;;;;3.20;99.90;;;;;;4982952;28;19937;-58
2022/01/26 01:44:28;;;;;;;;;;;3.20;99.90;;;;;;4966236;28;19976;-57
2022/01/26 01:46:54;;;;;;;;;;;3.10;99.90;;;;;;4965979;28;19989;-58
2022/01/26 01:49:20;;;;;;;;;;;3.20;99.90;;;;;;4966462;28;20041;-59
2022/01/26 01:51:48;;;;;;;;;;;3.20;99.90;;;;;;4976532;28;20087;-58
2022/01/26 01:54:16;;;;;;;;;;;3.80;99.90;;;;;;4985768;28;19953;-58
2022/01/26 01:56:44;;;;;;;;;;;3.10;99.90;;;;;;4985553;28;20684;-59
2022/01/26 01:59:10;;;;;;;;;;;3.10;99.90;;;;;;4985723;28;19929;-58
2022/01/26 02:01:36;;;;;;;;;;;3.10;99.90;;;;;;4972583;28;19938;-58
2022/01/26 02:04:01;;;;;;;;;;;3.10;99.90;;;;;;4980644;28;19929;-60
2022/01/26 02:06:27;;;;;;;;;;;3.10;99.90;;;;;;4995222;28;19925;-57
2022/01/26 02:08:52;;;;;;;;;;;3.10;99.90;;;;;;5004936;28;19929;-59
2022/01/26 02:11:18;;;;;;;;;;;3.10;99.90;;;;;;5004774;28;20333;-58
2022/01/26 02:17:11;;;;;;;;;;;3.10;99.90;;;;;;4987915;28;19937;-60
2022/01/26 02:20:08;;;;;;;;;;;3.00;99.90;;;;;;4969378;28;19930;-57
2022/01/26 02:50:36;;;;;;;;;;;2.90;99.90;;;;;;4987077;28;19975;-58
2022/01/26 03:05:09;;;;;;;;;;;2.90;99.90;;;;;;4986994;28;19930;-58
2022/01/26 03:07:41;;;;;;;;;;;2.90;99.90;;;;;;5006847;28;19929;-60
2022/01/26 03:10:56;;;;;;;;;;;2.90;99.90;;;;;;5007370;28;19929;-57
2022/01/26 03:12:58;;;;;;;;;;;2.90;99.90;;;;;;4992162;28;19930;-59
2022/01/26 03:15:33;;;;;;;;;;;2.80;99.90;;;;;;4987568;28;19926;-58
2022/01/26 03:20:39;;;;;;;;;;;2.80;99.90;;;;;;4987182;28;19937;-57
2022/01/26 03:28:43;;;;;;;;;;;2.90;99.90;;;;;;4987169;28;19973;-61
2022/01/26 03:31:51;;;;;;;;;;;2.80;99.90;;;;;;4974461;28;19930;-61
2022/01/26 03:36:45;;;;;;;;;;;2.90;99.90;;;;;;5006791;28;19934;-58
2022/01/26 03:39:14;;;;;;;;;;;2.80;99.90;;;;;;4999451;28;19983;-58
2022/01/26 03:41:44;;;;;;;;;;;2.80;99.90;;;;;;4986785;28;19929;-57
2022/01/26 03:44:10;;;;;;;;;;;2.80;99.90;;;;;;4983218;28;19975;-58
2022/01/26 03:46:36;;;;;;;;;;;2.80;99.90;;;;;;4986711;28;19941;-57
2022/01/26 03:49:02;;;;;;;;;;;2.80;99.90;;;;;;4987484;28;19937;-58
2022/01/26 03:51:28;;;;;;;;;;;2.80;99.90;;;;;;4987804;28;19937;-58
2022/01/26 03:53:54;;;;;;;;;;;2.80;99.90;;;;;;4987226;28;20398;-58
2022/01/26 03:56:19;;;;;;;;;;;2.80;99.90;;;;;;4987280;28;20295;-58
2022/01/26 03:58:45;;;;;;;;;;;2.80;99.90;;;;;;4983138;28;19933;-58
2022/01/26 04:01:10;;;;;;;;;;;2.80;99.90;;;;;;4969582;28;19931;-58
2022/01/26 04:03:36;;;;;;;;;;;2.80;99.90;;;;;;4975969;28;20434;-57
2022/01/26 04:06:01;;;;;;;;;;;2.80;99.90;;;;;;4993712;28;19925;-58
2022/01/26 04:08:30;;;;;;;;;;;2.80;99.90;;;;;;5006793;28;19936;-58
2022/01/26 04:13:33;;;;;;;;;;;2.80;99.90;;;;;;5007108;28;19936;-58
2022/01/26 04:15:59;;;;;;;;;;;2.80;99.90;;;;;;4992305;28;19930;-57
2022/01/26 04:18:32;;;;;;;;;;;2.80;99.90;;;;;;5012822;28;19936;-57
2022/01/26 04:21:02;;;;;;;;;;;2.80;99.90;;;;;;4984868;28;20143;-58
2022/01/26 04:25:59;;;;;;;;;;;2.80;99.90;;;;;;4986980;28;19934;-57
2022/01/26 04:28:32;;;;;;;;;;;2.80;99.90;;;;;;5048539;28;20439;-58
2022/01/26 04:30:57;;;;;;;;;;;3.10;99.90;;;;;;5027393;28;19959;-58
2022/01/26 04:33:23;;;;;;;;;;;2.80;99.90;;;;;;5035218;28;19928;-57
2022/01/26 04:35:48;;;;;;;;;;;2.80;99.90;;;;;;5001212;28;19972;-57
2022/01/26 04:38:31;;;;;;;;;;;2.80;99.90;;;;;;5003137;28;19928;-58
2022/01/26 04:43:32;;;;;;;;;;;2.80;99.90;;;;;;4986568;28;19975;-58
2022/01/26 04:45:58;;;;;;;;;;;2.70;99.90;;;;;;4985497;28;19930;-59
2022/01/26 04:48:25;;;;;;;;;;;2.80;99.90;;;;;;4986472;28;19975;-57
2022/01/26 04:50:51;;;;;;;;;;;2.80;99.90;;;;;;4986303;28;19971;-59
2022/01/26 04:53:17;;;;;;;;;;;2.70;99.90;;;;;;4986510;28;19968;-59
2022/01/26 04:55:42;;;;;;;;;;;2.70;99.90;;;;;;4986412;28;20342;-58
2022/01/26 04:58:08;;;;;;;;;;;3.00;99.90;;;;;;4986280;28;19930;-57
2022/01/26 05:00:33;;;;;;;;;;;2.70;99.90;;;;;;4978429;28;19937;-59
2022/01/26 05:02:59;;;;;;;;;;;2.60;99.90;;;;;;4986057;28;19976;-62
2022/01/26 05:05:25;;;;;;;;;;;2.70;99.90;;;;;;4988152;28;19934;-61
2022/01/26 05:07:50;;;;;;;;;;;2.60;99.90;;;;;;4995291;28;20329;-58
2022/01/26 05:10:16;;;;;;;;;;;2.60;99.90;;;;;;4985748;28;19936;-58
2022/01/26 05:12:42;;;;;;;;;;;2.70;99.90;;;;;;4985335;28;19951;-57
2022/01/26 05:15:07;;;;;;;;;;;2.70;99.90;;;;;;4985764;28;19936;-59
2022/01/26 05:17:33;;;;;;;;;;;2.70;99.90;;;;;;4986206;28;19930;-59
2022/01/26 05:20:00;;;;;;;;;;;3.70;99.90;;;;;;4985796;28;20378;-59
2022/01/26 05:22:27;;;;;;;;;;;2.60;99.90;;;;;;4985698;28;20392;-58
2022/01/26 05:24:55;;;;;;;;;;;2.60;99.90;;;;;;4985843;28;19979;-58
2022/01/26 05:27:20;;;;;;;;;;;2.60;99.90;;;;;;4985332;28;20406;-59
2022/01/26 05:29:47;;;;;;;;;;;2.60;99.90;;;;;;4985882;28;19930;-62
2022/01/26 05:32:12;;;;;;;;;;;2.60;99.90;;;;;;4985885;28;19955;-59
2022/01/26 05:34:38;;;;;;;;;;;2.60;99.90;;;;;;4985503;28;20295;-61
2022/01/26 05:37:03;;;;;;;;;;;2.60;99.90;;;;;;4985609;28;20025;-57
2022/01/26 05:39:31;;;;;;;;;;;2.60;99.90;;;;;;4985790;28;19981;-59
2022/01/26 05:41:57;;;;;;;;;;;2.60;99.90;;;;;;4983251;28;20020;-58
2022/01/26 05:44:22;;;;;;;;;;;2.60;99.90;;;;;;4985633;28;20354;-57
2022/01/26 05:46:49;;;;;;;;;;;2.50;99.90;;;;;;4985847;28;19933;-58
2022/01/26 05:49:17;;;;;;;;;;;2.60;99.90;;;;;;4985302;28;20032;-64
2022/01/26 05:51:46;;;;;;;;;;;2.60;99.90;;;;;;4985981;28;19926;-62
2022/01/26 05:54:12;;;;;;;;;;;2.60;99.90;;;;;;4985592;28;19936;-65
2022/01/26 05:56:38;;;;;;;;;;;2.60;99.90;;;;;;4982998;28;19930;-64
2022/01/26 05:59:04;;;;;;;;;;;2.50;99.90;;;;;;4966014;28;19952;-59
2022/01/26 06:01:29;;;;;;;;;;;2.70;99.90;;;;;;4978116;28;20026;-61
2022/01/26 06:03:55;;;;;;;;;;;2.50;99.90;;;;;;4987695;28;20397;-58
2022/01/26 06:06:21;;;;;;;;;;;2.50;99.90;;;;;;4993522;28;19933;-64
2022/01/26 06:08:47;;;;;;;;;;;2.50;99.90;;;;;;4988609;28;20031;-69
2022/01/26 06:11:12;;;;;;;;;;;2.50;99.90;;;;;;4987915;28;19984;-67
2022/01/26 06:13:38;;;;;;;;;;;2.50;99.90;;;;;;4988675;28;19929;-64
2022/01/26 06:16:04;;;;;;;;;;;2.50;99.90;;;;;;4988508;28;20378;-61
2022/01/26 06:18:30;;;;;;;;;;;2.50;99.90;;;;;;4988937;28;20043;-62
2022/01/26 06:20:56;;;;;;;;;;;2.40;99.90;;;;;;4988334;28;19933;-61
2022/01/26 06:23:24;;;;;;;;;;;2.50;99.90;;;;;;4988632;28;20377;-61
2022/01/26 06:25:51;;;;;;;;;;;2.50;99.90;;;;;;4987756;28;19930;-61
2022/01/26 06:28:17;;;;;;;;;;;2.50;99.90;;;;;;4988527;28;20347;-60
2022/01/26 06:30:46;;;;;;;;;;;2.50;99.90;;;;;;5078283;28;20060;-59
2022/01/26 06:33:12;;;;;;;;;;;2.50;99.90;;;;;;4969138;28;20017;-61
2022/01/26 06:35:38;;;;;;;;;;;2.40;99.90;;;;;;4968969;28;20064;-61
2022/01/26 06:38:04;;;;;;;;;;;2.40;99.90;;;;;;4969043;28;19930;-61
2022/01/26 06:40:30;;;;;;;;;;;2.50;99.90;;;;;;4986410;28;19978;-61
2022/01/26 06:45:24;;;;;;;;;;;2.50;99.90;;;;;;4987680;28;20306;-61
2022/01/26 06:50:21;;;;;;;;;;;2.50;99.90;;;;;;4987964;28;19933;-59
2022/01/26 06:52:47;;;;;;;;;;;2.50;99.90;;;;;;4988524;28;19978;-60
2022/01/26 06:55:14;;;;;;;;;;;2.70;99.90;;;;;;4987376;28;19930;-58
2022/01/26 06:57:40;;;;;;;;;;;2.80;99.90;;;;;;4988035;28;19941;-58
2022/01/26 07:00:06;;;;;;;;;;;2.50;99.90;;;;;;4986229;28;19934;-58
2022/01/26 07:02:31;;;;;;;;;;;2.40;99.90;;;;;;4968839;28;19930;-57
2022/01/26 07:04:57;;;;;;;;;;;2.50;99.90;;;;;;4985521;28;19953;-57
2022/01/26 07:07:22;;;;;;;;;;;3.50;99.90;;;;;;5002507;28;19936;-58
2022/01/26 07:09:48;;;;;;;;;;;2.50;99.90;;;;;;4987196;28;19937;-57
2022/01/26 07:12:13;;;;;;;;;;;2.50;99.90;;;;;;4984453;28;19930;-58
2022/01/26 07:22:45;;;;;;;;;;;2.50;99.90;;;;;;4974356;28;19930;-58
2022/01/26 07:25:11;;;;;;;;;;;2.50;99.90;;;;;;4972852;28;19932;-58
2022/01/26 07:27:36;;;;;;;;;;;2.50;99.90;;;;;;4979590;28;19936;-57
2022/01/26 07:30:03;;;;;;;;;;;3.40;99.90;;;;;;4986472;28;20337;-58
2022/01/26 07:32:30;;;;;;;;;;;2.50;99.90;;;;;;4989703;28;19933;-58
2022/01/26 07:34:55;;;;;;;;;;;2.50;99.90;;;;;;5012383;28;19940;-58
2022/01/26 07:37:22;;;;;;;;;;;2.50;99.90;;;;;;5085567;28;19928;-58
2022/01/26 07:40:00;;;;;;;;;;;3.00;99.90;;;;;;5017589;28;20385;-57
2022/01/26 07:42:26;;;;;;;;;;;2.90;99.90;;;;;;5014167;28;20020;-61
2022/01/26 07:44:52;;;;;;;;;;;2.50;99.90;;;;;;4984897;28;20051;-58
2022/01/26 07:47:17;;;;;;;;;;;2.50;99.90;;;;;;4981999;28;20005;-61
2022/01/26 07:49:43;;;;;;;;;;;2.50;99.90;;;;;;4986318;28;20009;-59
2022/01/26 07:52:08;;;;;;;;;;;2.50;99.90;;;;;;4978179;28;19930;-57
2022/01/26 07:54:34;;;;;;;;;;;2.50;99.90;;;;;;4967895;28;19944;-57
2022/01/26 07:57:01;;;;;;;;;;;2.50;99.90;;;;;;4971916;28;20612;-57
2022/01/26 07:59:27;;;;;;;;;;;2.60;99.90;;;;;;4967966;28;19930;-58
2022/01/26 08:01:53;;;;;;;;;;;2.60;99.90;;;;;;4983286;28;19960;-61
2022/01/26 08:04:19;;;;;;;;;;;2.60;99.90;;;;;;4986055;28;20375;-58
2022/01/26 08:06:44;;;;;;;;;;;2.60;99.90;;;;;;4987096;28;19976;-57
2022/01/26 08:09:10;;;;;;;;;;;2.60;99.90;;;;;;4983856;28;19976;-58
2022/01/26 08:11:36;;;;;;;;;;;2.60;99.90;;;;;;4968683;28;19930;-61
2022/01/26 08:14:02;;;;;;;;;;;2.80;99.90;;;;;;4967499;28;20332;-59
2022/01/26 08:16:28;;;;;;;;;;;2.60;99.90;;;;;;4971312;28;20016;-58
2022/01/26 08:18:53;;;;;;;;;;;2.70;99.90;;;;;;4985905;28;19926;-58
2022/01/26 08:21:19;;;;;;;;;;;2.70;99.90;;;;;;4980780;28;19936;-57
2022/01/26 08:23:45;;;;;;;;;;;2.60;99.90;;;;;;4972191;28;19980;-57
2022/01/26 08:26:11;;;;;;;;;;;2.70;99.90;;;;;;4985138;28;19928;-57
2022/01/26 08:28:42;;;;;;;;;;;2.70;99.90;;;;;;4983099;28;20046;-59
2022/01/26 08:31:08;;;;;;;;;;;2.70;99.90;;;;;;4989379;28;19972;-58
2022/01/26 08:33:34;;;;;;;;;;;2.70;99.90;;;;;;4997725;28;19973;-58
2022/01/26 08:35:59;;;;;;;;;;;2.70;99.90;;;;;;5026953;28;19928;-57
2022/01/26 08:38:26;;;;;;;;;;;2.80;99.90;;;;;;5000126;28;19938;-58
2022/01/26 08:40:52;;;;;;;;;;;2.80;99.90;;;;;;4983685;28;19936;-59
2022/01/26 08:43:17;;;;;;;;;;;2.80;99.90;;;;;;5032076;28;19996;-58
2022/01/26 08:45:44;;;;;;;;;;;2.80;99.90;;;;;;5020858;28;20383;-57
2022/01/26 08:48:10;;;;;;;;;;;2.80;99.90;;;;;;4992091;28;21430;-58
2022/01/26 08:50:36;;;;;;;;;;;2.90;99.90;;;;;;4988941;28;19941;-57
2022/01/26 08:53:02;;;;;;;;;;;2.90;99.90;;;;;;5021074;28;19928;-60
2022/01/26 08:55:27;;;;;;;;;;;2.90;99.90;;;;;;5060972;28;19930;-58
2022/01/26 08:57:53;;;;;;;;;;;2.90;99.90;;;;;;4980721;28;19936;-58
2022/01/26 09:00:18;;;;;;;;;;;2.90;99.90;;;;;;4981343;28;20280;-60
2022/01/26 09:02:46;;;;;;;;;;;2.90;99.90;;;;;;4991531;28;19951;-62
2022/01/26 09:05:13;;;;;;;;;;;2.90;99.90;;;;;;4968636;28;20461;-61
2022/01/26 09:07:42;;;;;;;;;;;3.00;99.90;;;;;;5001294;28;20026;-60
2022/01/26 09:10:09;;;;;;;;;;;3.80;99.90;;;;;;4980156;28;20470;-59
2022/01/26 09:12:37;;;;;;;;;;;3.10;99.90;;;;;;5002986;28;20246;-59
2022/01/26 09:15:06;;;;;;;;;;;3.70;99.90;;;;;;5061599;28;20293;-57
2022/01/26 09:17:33;;;;;;;;;;;3.10;99.90;;;;;;5037728;28;20408;-63
2022/01/26 09:20:00;;;;;;;;;;;3.20;99.90;;;;;;4974312;28;19944;-65
2022/01/26 09:22:26;;;;;;;;;;;3.20;99.90;;;;;;4978564;28;19934;-65
2022/01/26 09:24:52;;;;;;;;;;;3.20;99.90;;;;;;4991178;28;19971;-68
2022/01/26 09:27:17;;;;;;;;;;;3.20;99.90;;;;;;4985578;28;19952;-62
2022/01/26 09:29:44;;;;;;;;;;;3.30;99.90;;;;;;4980428;28;20291;-64
2022/01/26 09:32:13;;;;;;;;;;;3.30;99.90;;;;;;4976179;28;19941;-65
2022/01/26 09:34:39;;;;;;;;;;;3.30;99.90;;;;;;4982884;28;19929;-66
2022/01/26 09:37:05;;;;;;;;;;;3.30;99.90;;;;;;4975011;28;20503;-65
2022/01/26 09:39:31;;;;;;;;;;;3.40;99.90;;;;;;4983713;28;19937;-67
2022/01/26 09:41:57;;;;;;;;;;;3.40;99.90;;;;;;4975778;28;19930;-62
2022/01/26 09:44:22;;;;;;;;;;;3.40;99.90;;;;;;5003070;28;19935;-57
2022/01/26 09:46:48;;;;;;;;;;;3.40;99.90;;;;;;4970529;28;19956;-64
2022/01/26 09:49:16;;;;;;;;;;;3.40;99.90;;;;;;4981273;28;19925;-60
2022/01/26 09:51:43;;;;;;;;;;;3.40;99.90;;;;;;5002560;28;19959;-60
2022/01/26 09:54:15;;;;;;;;;;;3.50;99.90;;;;;;5004363;28;19925;-60
2022/01/26 09:56:46;;;;;;;;;;;3.50;99.90;;;;;;5073963;28;19935;-58
2022/01/26 09:59:12;;;;;;;;;;;3.50;99.90;;;;;;4987754;28;20456;-57
2022/01/26 10:01:38;;;;;;;;;;;3.50;99.90;;;;;;4989432;28;20097;-57
2022/01/26 10:04:04;;;;;;;;;;;3.60;99.90;;;;;;4980256;28;19929;-60
2022/01/26 10:06:31;;;;;;;;;;;3.60;99.90;;;;;;5000453;28;19940;-60
2022/01/26 10:09:38;;;;;;;;;;;3.70;99.90;;;;;;4979058;28;19930;-68
2022/01/26 10:17:35;;;;;;;;;;;3.70;99.90;;;;;;4970072;28;20278;-58
2022/01/26 10:20:03;;;;;;;;;;;3.80;99.90;;;;;;5027968;28;19929;-60
2022/01/26 10:22:33;;;;;;;;;;;3.80;99.90;;;;;;4982527;28;19953;-58
2022/01/26 10:25:08;;;;;;;;;;;3.90;99.90;;;;;;5023170;28;20739;-59
2022/01/26 10:27:35;;;;;;;;;;;3.80;99.90;;;;;;4992248;28;19981;-57
2022/01/26 10:30:02;;;;;;;;;;;3.90;99.90;;;;;;4979544;28;19961;-58
2022/01/26 10:32:31;;;;;;;;;;;4.00;99.90;;;;;;4987857;28;19936;-58
2022/01/26 10:34:58;;;;;;;;;;;4.00;99.90;;;;;;5022108;28;20053;-57
2022/01/26 10:37:23;;;;;;;;;;;4.00;99.90;;;;;;5008062;28;20554;-67
2022/01/26 10:39:52;;;;;;;;;;;4.10;99.90;;;;;;4989983;28;19929;-57
2022/01/26 10:42:20;;;;;;;;;;;4.00;99.90;;;;;;4982933;28;19998;-62
2022/01/26 10:44:52;;;;;;;;;;;4.10;99.90;;;;;;4987503;28;19934;-58
2022/01/26 10:47:28;;;;;;;;;;;4.20;99.90;;;;;;4990696;28;20027;-58
2022/01/26 10:50:18;;;;;;;;;;;4.20;99.90;;;;;;5053130;28;19943;-59
2022/01/26 10:52:41;;;;;;;;;;;4.40;99.90;;;;;;4990761;28;20032;-58
2022/01/26 10:55:08;;;;;;;;;;;4.20;99.90;;;;;;4981630;28;20481;-60
2022/01/26 10:57:35;;;;;;;;;;;4.20;99.90;;;;;;4979862;28;20040;-61
2022/01/26 11:00:02;;;;;;;;;;;4.30;99.90;;;;;;4984527;28;19936;-60
2022/01/26 11:02:31;;;;;;;;;;;4.30;99.90;;;;;;4971121;28;20285;-58
2022/01/26 11:04:56;;;;;;;;;;;4.80;99.90;;;;;;4985828;28;19940;-60
2022/01/26 11:07:33;;;;;;;;;;;4.30;99.90;;;;;;4994007;28;19930;-60
2022/01/26 11:10:01;;;;;;;;;;;4.40;99.90;;;;;;5056615;28;19928;-59
2022/01/26 11:12:28;;;;;;;;;;;4.30;99.90;;;;;;4991161;28;20699;-57
2022/01/26 11:15:13;;;;;;;;;;;4.40;99.90;;;;;;4972457;28;19983;-60
2022/01/26 11:17:42;;;;;;;;;;;4.40;99.90;;;;;;4987642;28;20383;-59
2022/01/26 11:20:20;;;;;;;;;;;4.40;99.90;;;;;;4998941;28;19973;-59
2022/01/26 11:22:52;;;;;;;;;;;4.40;99.90;;;;;;4981164;28;20349;-60
2022/01/26 11:25:18;;;;;;;;;;;4.40;99.90;;;;;;5009044;28;20071;-58
2022/01/26 11:27:44;;;;;;;;;;;4.40;99.90;;;;;;4993349;28;19929;-61
2022/01/26 11:30:18;;;;;;;;;;;4.40;99.90;;;;;;4995306;28;20035;-58
2022/01/26 11:32:50;;;;;;;;;;;4.50;99.90;;;;;;4998798;28;19930;-58
2022/01/26 11:35:17;;;;;;;;;;;4.40;99.90;;;;;;5014338;28;19933;-58
2022/01/26 11:37:50;;;;;;;;;;;4.50;99.90;;;;;;4986321;28;20318;-57
2022/01/26 11:46:07;;;;;;;;;;;4.60;99.90;;;;;;5003527;28;20287;-58
2022/01/26 11:48:33;;;;;;;;;;;4.60;99.90;;;;;;4982803;28;20387;-58
2022/01/26 11:50:59;;;;;;;;;;;4.60;99.90;;;;;;5021544;28;19935;-58
2022/01/26 11:53:26;;;;;;;;;;;4.60;99.90;;;;;;5005422;28;19930;-57
2022/01/26 11:55:59;;;;;;;;;;;5.00;99.90;;;;;;4992370;28;19929;-57
2022/01/26 11:58:38;;;;;;;;;;;4.90;99.90;;;;;;5000035;28;20340;-59
2022/01/26 12:03:35;;;;;;;;;;;4.80;99.90;;;;;;5000174;28;19933;-57
2022/01/26 12:06:01;;;;;;;;;;;4.90;99.90;;;;;;5015718;28;20151;-58
2022/01/26 12:08:32;;;;;;;;;;;4.80;99.90;;;;;;4986731;28;20374;-57
2022/01/26 12:10:58;;;;;;;;;;;4.90;99.90;;;;;;4983878;28;19952;-58
2022/01/26 12:13:25;;;;;;;;;;;4.80;99.90;;;;;;4999758;28;20364;-57
2022/01/26 12:16:05;;;;;;;;;;;4.80;99.90;;;;;;5034992;28;20623;-58
2022/01/26 12:18:42;;;;;;;;;;;4.90;99.90;;;;;;5000248;28;19926;-66
2022/01/26 12:32:24;;;;;;;;;;;5.70;99.90;;;;;;5011229;28;19933;-60
2022/01/26 12:35:06;;;;;;;;;;;4.80;99.90;;;;;;4972456;28;19934;-61
2022/01/26 12:38:19;;;;;;;;;;;5.10;99.90;;;;;;4976891;28;19934;-58
2022/01/26 12:43:19;;;;;;;;;;;4.90;99.90;;;;;;4982483;28;19952;-68
2022/01/26 12:45:46;;;;;;;;;;;4.80;99.90;;;;;;5046670;28;20476;-68
2022/01/26 12:48:11;;;;;;;;;;;4.80;99.90;;;;;;5017141;28;19983;-66
2022/01/26 12:50:38;;;;;;;;;;;5.00;99.90;;;;;;4982602;28;20009;-61
2022/01/26 12:53:04;;;;;;;;;;;4.80;99.90;;;;;;4986472;28;19948;-57
2022/01/26 12:55:34;;;;;;;;;;;4.80;99.90;;;;;;4983614;28;20379;-59
2022/01/26 12:58:00;;;;;;;;;;;4.80;99.90;;;;;;4983136;28;19933;-57
2022/01/26 13:00:36;;;;;;;;;;;4.70;99.90;;;;;;4981727;28;19934;-65
2022/01/26 13:03:08;;;;;;;;;;;4.80;99.90;;;;;;4983748;28;19983;-62
2022/01/26 13:05:33;;;;;;;;;;;4.80;99.90;;;;;;5044644;28;20639;-68
2022/01/26 13:08:00;;;;;;;;;;;4.80;99.90;;;;;;4974282;28;20056;-66
2022/01/26 13:10:26;;;;;;;;;;;5.10;99.90;;;;;;4995171;28;19941;-62
2022/01/26 13:12:51;;;;;;;;;;;4.80;99.90;;;;;;4977434;28;19934;-66
2022/01/26 13:15:24;;;;;;;;;;;4.80;99.90;;;;;;4984969;28;19930;-59
2022/01/26 13:17:56;;;;;;;;;;;4.80;99.90;;;;;;4992184;28;19981;-58
2022/01/26 13:20:43;;;;;;;;;;;5.00;99.90;;;;;;4989736;28;19933;-64
2022/01/26 13:23:31;;;;;;;;;;;4.90;99.90;;;;;;4982079;28;20208;-64
2022/01/26 14:00:21;;;;;;;;;;;5.30;99.90;;;;;;5057488;28;19928;-58
2022/01/26 14:02:49;;;;;;;;;;;5.30;99.90;;;;;;5043489;28;19932;-58
2022/01/26 14:05:15;;;;;;;;;;;5.50;99.90;;;;;;5024495;28;19933;-57
2022/01/26 14:07:40;;;;;;;;;;;5.30;99.90;;;;;;4991297;28;20383;-59
2022/01/26 14:10:06;;;;;;;;;;;5.40;99.90;;;;;;4979935;28;19937;-61
2022/01/26 14:12:37;;;;;;;;;;;5.20;99.90;;;;;;4982889;28;19930;-58
2022/01/26 14:15:07;;;;;;;;;;;5.20;99.90;;;;;;4996709;28;19929;-59
2022/01/26 14:25:30;;;;;;;;;;;5.90;99.90;;;;;;5000535;28;19929;-58
2022/01/26 14:28:01;;;;;;;;;;;5.20;99.90;;;;;;4984012;28;19934;-58
2022/01/26 14:36:05;;;;;;;;;;;5.20;99.90;;;;;;5002220;28;19929;-57
2022/01/26 15:30:06;;;;;;;;;;;5.20;99.90;;;;;;4983886;28;19990;-66
2022/01/26 15:35:18;;;;;;;;;;;5.10;99.90;;;;;;4982692;28;19929;-58
2022/01/26 15:50:50;;;;;;;;;;;5.00;99.90;;;;;;4991134;28;19930;-60
2022/01/26 16:07:11;;;;;;;;;;;4.90;99.90;;;;;;4985644;28;19932;-58
2022/01/26 16:37:39;;;;;;;;;;;4.90;99.90;;;;;;4995883;28;20418;-61
2022/01/26 17:47:37;;;;;;;;;;;5.10;99.90;;;;;;4977606;28;19995;-59
2022/01/26 18:33:02;;;;;;;;;;;5.00;99.90;;;;;;4997697;28;20823;-58
2022/01/26 18:49:10;;;;;;;;;;;5.10;99.90;;;;;;4973888;28;19934;-58
2022/01/26 18:49:36;;;;;;;;;;;5.10;99.90;;;;;;4984611;28;19936;-60
2022/01/26 18:52:03;;;;;;;;;;;5.60;99.90;;;;;;5016305;28;20379;-60
2022/01/26 18:54:29;;;;;;;;;;;5.10;99.90;;;;;;4985056;28;20014;-61
2022/01/26 18:56:56;;;;;;;;;;;6.90;99.90;;;;;;4990539;28;19930;-60
2022/01/26 18:59:22;;;;;;;;;;;5.20;99.90;;;;;;4983504;28;19934;-58
2022/01/26 19:01:49;;;;;;;;;;;5.40;99.90;;;;;;4980828;28;19949;-59
2022/01/26 19:04:16;;;;;;;;;;;5.10;99.90;;;;;;4984877;28;19929;-59
2022/01/26 19:06:48;;;;;;;;;;;5.50;99.90;;;;;;5001950;28;20040;-57
2022/01/26 19:09:17;;;;;;;;;;;5.20;99.90;;;;;;4995637;28;19936;-58
2022/01/26 19:11:43;;;;;;;;;;;5.20;99.90;;;;;;5047442;28;19967;-57
2022/01/26 19:14:09;;;;;;;;;;;5.20;99.90;;;;;;4993792;28;20430;-57
2022/01/26 19:16:42;;;;;;;;;;;5.70;99.90;;;;;;4986819;28;19983;-58
2022/01/26 19:22:42;;;;;;;;;;;5.30;99.90;;;;;;4980534;28;20789;-57
2022/01/26 19:25:12;;;;;;;;;;;5.20;99.90;;;;;;4986644;28;19929;-60
2022/01/26 19:27:49;;;;;;;;;;;5.20;99.90;;;;;;5006595;28;19930;-64
2022/01/26 19:32:56;;;;;;;;;;;5.30;99.90;;;;;;4978580;28;19935;-61
2022/01/26 19:51:19;;;;;;;;;;;5.40;99.90;;;;;;4979753;28;19931;-60
2022/01/26 19:53:44;;;;;;;;;;;5.50;99.90;;;;;;4967015;28;19930;-67
2022/01/26 19:56:10;;;;;;;;;;;5.50;99.90;;;;;;4978840;28;19936;-69
2022/01/26 19:58:35;;;;;;;;;;;5.50;99.90;;;;;;4980171;28;19933;-60
2022/01/26 20:01:02;;;;;;;;;;;5.50;99.90;;;;;;4975173;28;20402;-58
2022/01/26 20:03:28;;;;;;;;;;;6.70;99.90;;;;;;4986101;28;20417;-58
2022/01/26 20:05:55;;;;;;;;;;;6.20;99.90;;;;;;4993903;28;19937;-58
2022/01/26 20:08:33;;;;;;;;;;;5.50;99.90;;;;;;4998993;28;19964;-59
2022/01/26 20:11:07;;;;;;;;;;;5.60;99.90;;;;;;4977216;28;19929;-58
2022/01/26 20:13:38;;;;;;;;;;;6.00;99.90;;;;;;4976710;28;20395;-58
2022/01/26 20:16:04;;;;;;;;;;;5.60;99.90;;;;;;4982030;28;19930;-57
2022/01/26 20:18:29;;;;;;;;;;;5.60;99.90;;;;;;4982065;28;20383;-59
2022/01/26 20:20:59;;;;;;;;;;;5.60;99.90;;;;;;4980718;28;19984;-58
2022/01/26 20:23:32;;;;;;;;;;;5.60;99.90;;;;;;4979610;28;19937;-59
2022/01/26 20:26:00;;;;;;;;;;;5.60;99.90;;;;;;4969814;28;20017;-63
2022/01/26 20:28:27;;;;;;;;;;;5.60;99.90;;;;;;4981576;28;20009;-61
2022/01/26 20:30:52;;;;;;;;;;;5.60;99.90;;;;;;4977777;28;19930;-63
2022/01/26 20:33:18;;;;;;;;;;;5.70;99.90;;;;;;4987606;28;19936;-67
2022/01/26 20:35:44;;;;;;;;;;;5.70;99.90;;;;;;4989461;28;19930;-67
2022/01/26 20:38:09;;;;;;;;;;;5.70;99.90;;;;;;4984015;28;19934;-65
2022/01/26 20:40:35;;;;;;;;;;;5.70;99.90;;;;;;4981040;28;19987;-60
2022/01/26 20:43:01;;;;;;;;;;;5.70;99.90;;;;;;4984817;28;20004;-58
2022/01/26 20:45:29;;;;;;;;;;;5.70;99.90;;;;;;4980622;28;19930;-57
2022/01/26 20:47:57;;;;;;;;;;;5.70;99.90;;;;;;4991417;28;19930;-58
2022/01/26 20:50:23;;;;;;;;;;;5.70;99.90;;;;;;4983651;28;20405;-58
2022/01/26 20:52:49;;;;;;;;;;;5.70;99.90;;;;;;4997285;28;19924;-58
2022/01/26 20:55:14;;;;;;;;;;;5.70;99.90;;;;;;4989780;28;19937;-58
2022/01/26 20:57:41;;;;;;;;;;;5.70;99.90;;;;;;4964656;28;19930;-59
2022/01/26 21:00:08;;;;;;;;;;;5.70;99.90;;;;;;4971716;28;19973;-57
2022/01/26 21:02:34;;;;;;;;;;;5.70;99.90;;;;;;4978783;28;19930;-59
2022/01/26 21:04:59;;;;;;;;;;;5.70;99.90;;;;;;4967556;28;19937;-59
2022/01/26 21:07:25;;;;;;;;;;;5.70;99.90;;;;;;5001881;28;19940;-58
2022/01/26 21:09:50;;;;;;;;;;;5.70;99.90;;;;;;5064817;28;19928;-58
2022/01/26 21:12:16;;;;;;;;;;;5.70;99.90;;;;;;4966539;28;20028;-58
2022/01/26 21:14:42;;;;;;;;;;;5.70;99.90;;;;;;4981677;28;19952;-58
2022/01/26 21:17:08;;;;;;;;;;;5.60;99.90;;;;;;4969003;28;20064;-58
2022/01/26 21:19:34;;;;;;;;;;;5.60;99.90;;;;;;5001163;28;20031;-57
2022/01/26 21:22:00;;;;;;;;;;;5.70;99.90;;;;;;4961953;28;19979;-58
2022/01/26 21:24:26;;;;;;;;;;;5.70;99.90;;;;;;5019617;28;20596;-59
2022/01/26 21:26:51;;;;;;;;;;;5.60;99.90;;;;;;4961989;28;19934;-58
2022/01/26 21:29:17;;;;;;;;;;;5.60;99.90;;;;;;4966078;28;19926;-58
2022/01/26 21:31:43;;;;;;;;;;;5.60;99.90;;;;;;4977450;28;19929;-58
2022/01/26 21:34:09;;;;;;;;;;;5.70;99.90;;;;;;4972613;28;19934;-57
2022/01/26 21:36:34;;;;;;;;;;;6.20;99.90;;;;;;4979575;28;19982;-58
2022/01/26 21:39:00;;;;;;;;;;;5.70;99.90;;;;;;4981309;28;19930;-58
2022/01/26 21:41:26;;;;;;;;;;;5.70;99.90;;;;;;4966263;28;19934;-59
2022/01/26 21:43:51;;;;;;;;;;;5.70;99.90;;;;;;4981733;28;19930;-57
2022/01/26 21:46:17;;;;;;;;;;;5.70;99.90;;;;;;4970595;28;19930;-58